sensor_id;sensor_type;location;lat;lon;timestamp;P1;durP1;ratioP1;P2;durP2;ratioP2
29006;SDS011;16104;48.642;9.008;2024-02-21T00:03:57;9.20;;;3.47;;
29006;SDS011;16104;48.642;9.008;2024-02-21T00:08:53;9.85;;;3.50;;
29006;SDS011;16104;48.642;9.008;2024-02-21T00:13:48;7.85;;;3.40;;
29006;SDS011;16104;48.642;9.008;2024-02-21T00:18:45;7.88;;;3.00;;
29006;SDS011;16104;48.642;9.008;2024-02-21T00:23:40;12.45;;;3.70;;
29006;SDS011;16104;48.642;9.008;2024-02-21T00:28:36;11.63;;;3.15;;
29006;SDS011;16104;48.642;9.008;2024-02-21T00:33:31;11.52;;;3.50;;
29006;SDS011;16104;48.642;9.008;2024-02-21T00:38:34;11.65;;;3.30;;
29006;SDS011;16104;48.642;9.008;2024-02-21T00:43:29;8.48;;;3.20;;
29006;SDS011;16104;48.642;9.008;2024-02-21T00:48:25;10.63;;;3.10;;
29006;SDS011;16104;48.642;9.008;2024-02-21T00:53:20;10.68;;;3.35;;
29006;SDS011;16104;48.642;9.008;2024-02-21T00:58:16;9.73;;;2.78;;
29006;SDS011;16104;48.642;9.008;2024-02-21T05:02:39;9.52;;;2.92;;
29006;SDS011;16104;48.642;9.008;2024-02-21T05:07:35;8.25;;;2.75;;
29006;SDS011;16104;48.642;9.008;2024-02-21T05:12:30;7.93;;;2.92;;
29006;SDS011;16104;48.642;9.008;2024-02-21T05:17:26;8.85;;;2.85;;
29006;SDS011;16104;48.642;9.008;2024-02-21T05:22:21;7.57;;;3.03;;
29006;SDS011;16104;48.642;9.008;2024-02-21T05:27:16;7.75;;;2.97;;
29006;SDS011;16104;48.642;9.008;2024-02-21T05:32:12;7.13;;;3.13;;
29006;SDS011;16104;48.642;9.008;2024-02-21T05:37:08;8.90;;;2.88;;
29006;SDS011;16104;48.642;9.008;2024-02-21T05:42:03;9.20;;;3.25;;
29006;SDS011;16104;48.642;9.008;2024-02-21T05:46:59;9.70;;;3.10;;
29006;SDS011;16104;48.642;9.008;2024-02-21T05:51:54;10.27;;;3.05;;
29006;SDS011;16104;48.642;9.008;2024-02-21T05:56:50;9.13;;;3.17;;
29006;SDS011;16104;48.642;9.008;2024-02-21T06:01:54;9.65;;;3.20;;
29006;SDS011;16104;48.642;9.008;2024-02-21T06:06:58;8.15;;;2.97;;
29006;SDS011;16104;48.642;9.008;2024-02-21T06:11:53;7.00;;;2.90;;
29006;SDS011;16104;48.642;9.008;2024-02-21T06:16:49;8.52;;;2.95;;
29006;SDS011;16104;48.642;9.008;2024-02-21T06:21:44;6.82;;;2.58;;
29006;SDS011;16104;48.642;9.008;2024-02-21T06:26:40;6.07;;;2.83;;
29006;SDS011;16104;48.642;9.008;2024-02-21T06:31:35;7.45;;;3.00;;
29006;SDS011;16104;48.642;9.008;2024-02-21T06:36:31;12.07;;;3.55;;
29006;SDS011;16104;48.642;9.008;2024-02-21T06:41:26;6.47;;;3.28;;
29006;SDS011;16104;48.642;9.008;2024-02-21T06:46:25;8.85;;;2.90;;
29006;SDS011;16104;48.642;9.008;2024-02-21T06:51:23;11.27;;;3.20;;
29006;SDS011;16104;48.642;9.008;2024-02-21T06:56:20;11.52;;;3.17;;
29006;SDS011;16104;48.642;9.008;2024-02-21T07:01:15;7.53;;;2.85;;
29006;SDS011;16104;48.642;9.008;2024-02-21T07:06:11;10.10;;;3.05;;
29006;SDS011;16104;48.642;9.008;2024-02-21T07:11:07;6.95;;;3.13;;
29006;SDS011;16104;48.642;9.008;2024-02-21T07:16:02;7.22;;;3.05;;
29006;SDS011;16104;48.642;9.008;2024-02-21T07:20:58;8.40;;;3.00;;
29006;SDS011;16104;48.642;9.008;2024-02-21T07:25:54;8.10;;;2.88;;
29006;SDS011;16104;48.642;9.008;2024-02-21T07:30:49;6.80;;;2.92;;
29006;SDS011;16104;48.642;9.008;2024-02-21T07:35:44;10.20;;;3.08;;
29006;SDS011;16104;48.642;9.008;2024-02-21T07:40:40;9.02;;;3.05;;
29006;SDS011;16104;48.642;9.008;2024-02-21T07:45:35;12.30;;;3.72;;
29006;SDS011;16104;48.642;9.008;2024-02-21T07:50:31;15.60;;;3.42;;
29006;SDS011;16104;48.642;9.008;2024-02-21T07:55:27;8.35;;;3.28;;
29006;SDS011;16104;48.642;9.008;2024-02-21T08:00:22;8.93;;;3.78;;
29006;SDS011;16104;48.642;9.008;2024-02-21T08:05:18;10.80;;;3.40;;
29006;SDS011;16104;48.642;9.008;2024-02-21T08:10:13;7.60;;;3.42;;
29006;SDS011;16104;48.642;9.008;2024-02-21T08:15:09;9.30;;;3.17;;
29006;SDS011;16104;48.642;9.008;2024-02-21T08:20:05;8.90;;;3.40;;
29006;SDS011;16104;48.642;9.008;2024-02-21T08:25:01;10.57;;;3.97;;
29006;SDS011;16104;48.642;9.008;2024-02-21T08:29:57;12.23;;;3.47;;
29006;SDS011;16104;48.642;9.008;2024-02-21T08:34:53;8.45;;;3.38;;
29006;SDS011;16104;48.642;9.008;2024-02-21T08:39:48;12.68;;;3.08;;
29006;SDS011;16104;48.642;9.008;2024-02-21T08:44:44;6.15;;;3.15;;
29006;SDS011;16104;48.642;9.008;2024-02-21T08:49:40;10.25;;;3.00;;
29006;SDS011;16104;48.642;9.008;2024-02-21T08:54:36;7.28;;;3.10;;
29006;SDS011;16104;48.642;9.008;2024-02-21T08:59:31;8.38;;;3.15;;
29006;SDS011;16104;48.642;9.008;2024-02-21T09:04:27;6.22;;;2.92;;
29006;SDS011;16104;48.642;9.008;2024-02-21T09:09:22;9.75;;;3.20;;
29006;SDS011;16104;48.642;9.008;2024-02-21T09:14:18;8.95;;;3.00;;
29006;SDS011;16104;48.642;9.008;2024-02-21T09:19:14;13.00;;;3.22;;
29006;SDS011;16104;48.642;9.008;2024-02-21T09:24:09;7.32;;;2.55;;
29006;SDS011;16104;48.642;9.008;2024-02-21T09:29:05;9.48;;;2.92;;
29006;SDS011;16104;48.642;9.008;2024-02-21T09:34:00;11.15;;;3.10;;
29006;SDS011;16104;48.642;9.008;2024-02-21T09:38:57;7.43;;;3.03;;
29006;SDS011;16104;48.642;9.008;2024-02-21T09:43:52;4.65;;;2.30;;
29006;SDS011;16104;48.642;9.008;2024-02-21T09:48:54;8.57;;;2.90;;
29006;SDS011;16104;48.642;9.008;2024-02-21T09:54:12;8.10;;;2.72;;
29006;SDS011;16104;48.642;9.008;2024-02-21T09:59:08;8.70;;;2.85;;
29006;SDS011;16104;48.642;9.008;2024-02-21T10:04:06;9.30;;;2.95;;
29006;SDS011;16104;48.642;9.008;2024-02-21T10:09:03;6.00;;;2.55;;
29006;SDS011;16104;48.642;9.008;2024-02-21T10:14:05;5.95;;;2.50;;
29006;SDS011;16104;48.642;9.008;2024-02-21T10:19:03;9.13;;;2.83;;
29006;SDS011;16104;48.642;9.008;2024-02-21T10:23:59;6.22;;;2.13;;
29006;SDS011;16104;48.642;9.008;2024-02-21T10:28:54;6.80;;;1.90;;
29006;SDS011;16104;48.642;9.008;2024-02-21T10:33:54;5.85;;;2.08;;
29006;SDS011;16104;48.642;9.008;2024-02-21T10:38:54;6.28;;;1.83;;
29006;SDS011;16104;48.642;9.008;2024-02-21T10:43:51;5.10;;;2.20;;
29006;SDS011;16104;48.642;9.008;2024-02-21T10:48:53;4.60;;;1.63;;
29006;SDS011;16104;48.642;9.008;2024-02-21T10:54:04;4.35;;;1.52;;
29006;SDS011;16104;48.642;9.008;2024-02-21T10:59:26;7.03;;;1.73;;
29006;SDS011;16104;48.642;9.008;2024-02-21T11:04:25;3.55;;;1.67;;
29006;SDS011;16104;48.642;9.008;2024-02-21T11:09:29;4.78;;;1.48;;
29006;SDS011;16104;48.642;9.008;2024-02-21T11:14:27;6.20;;;1.52;;
29006;SDS011;16104;48.642;9.008;2024-02-21T11:19:26;5.38;;;1.70;;
29006;SDS011;16104;48.642;9.008;2024-02-21T11:24:27;3.13;;;1.80;;
29006;SDS011;16104;48.642;9.008;2024-02-21T11:29:29;6.20;;;1.80;;
29006;SDS011;16104;48.642;9.008;2024-02-21T11:34:25;5.93;;;1.70;;
29006;SDS011;16104;48.642;9.008;2024-02-21T11:39:24;3.97;;;1.70;;
29006;SDS011;16104;48.642;9.008;2024-02-21T11:44:20;3.55;;;1.50;;
29006;SDS011;16104;48.642;9.008;2024-02-21T11:49:16;2.90;;;1.30;;
29006;SDS011;16104;48.642;9.008;2024-02-21T11:54:11;4.05;;;1.60;;
29006;SDS011;16104;48.642;9.008;2024-02-21T11:59:11;4.20;;;1.30;;
29006;SDS011;16104;48.642;9.008;2024-02-21T12:04:06;4.75;;;1.50;;
29006;SDS011;16104;48.642;9.008;2024-02-21T12:09:03;5.85;;;1.60;;
29006;SDS011;16104;48.642;9.008;2024-02-21T12:13:59;2.78;;;1.20;;
29006;SDS011;16104;48.642;9.008;2024-02-21T12:18:59;6.00;;;1.52;;
29006;SDS011;16104;48.642;9.008;2024-02-21T12:23:55;4.43;;;1.40;;
29006;SDS011;16104;48.642;9.008;2024-02-21T12:28:51;2.15;;;1.10;;
29006;SDS011;16104;48.642;9.008;2024-02-21T12:33:49;3.53;;;1.10;;
29006;SDS011;16104;48.642;9.008;2024-02-21T12:38:47;4.10;;;1.48;;
29006;SDS011;16104;48.642;9.008;2024-02-21T12:43:43;4.47;;;1.30;;
29006;SDS011;16104;48.642;9.008;2024-02-21T12:48:39;4.28;;;1.10;;
29006;SDS011;16104;48.642;9.008;2024-02-21T12:53:35;4.50;;;1.33;;
29006;SDS011;16104;48.642;9.008;2024-02-21T12:58:30;2.72;;;1.30;;
29006;SDS011;16104;48.642;9.008;2024-02-21T13:03:26;3.33;;;1.20;;
29006;SDS011;16104;48.642;9.008;2024-02-21T13:08:22;4.15;;;1.48;;
29006;SDS011;16104;48.642;9.008;2024-02-21T13:13:18;2.15;;;1.10;;
29006;SDS011;16104;48.642;9.008;2024-02-21T13:18:13;3.95;;;1.50;;
29006;SDS011;16104;48.642;9.008;2024-02-21T13:23:09;4.18;;;1.40;;
29006;SDS011;16104;48.642;9.008;2024-02-21T13:28:04;3.58;;;1.30;;
29006;SDS011;16104;48.642;9.008;2024-02-21T13:33:00;2.63;;;1.13;;
29006;SDS011;16104;48.642;9.008;2024-02-21T13:37:55;3.63;;;1.13;;
29006;SDS011;16104;48.642;9.008;2024-02-21T13:42:51;2.17;;;0.98;;
29006;SDS011;16104;48.642;9.008;2024-02-21T13:47:49;2.90;;;1.20;;
29006;SDS011;16104;48.642;9.008;2024-02-21T13:52:44;2.28;;;1.20;;
29006;SDS011;16104;48.642;9.008;2024-02-21T13:57:40;2.70;;;1.25;;
29006;SDS011;16104;48.642;9.008;2024-02-21T14:02:35;10.32;;;1.60;;
29006;SDS011;16104;48.642;9.008;2024-02-21T14:07:31;3.22;;;1.10;;
29006;SDS011;16104;48.642;9.008;2024-02-21T14:12:28;4.03;;;1.60;;
29006;SDS011;16104;48.642;9.008;2024-02-21T14:17:24;3.78;;;1.35;;
29006;SDS011;16104;48.642;9.008;2024-02-21T14:22:19;1.98;;;1.15;;
29006;SDS011;16104;48.642;9.008;2024-02-21T14:27:15;2.15;;;1.30;;
29006;SDS011;16104;48.642;9.008;2024-02-21T14:32:11;5.30;;;1.30;;
29006;SDS011;16104;48.642;9.008;2024-02-21T14:37:08;2.50;;;1.35;;
29006;SDS011;16104;48.642;9.008;2024-02-21T14:42:03;4.18;;;1.35;;
29006;SDS011;16104;48.642;9.008;2024-02-21T14:46:59;2.58;;;1.42;;
29006;SDS011;16104;48.642;9.008;2024-02-21T14:51:54;2.83;;;1.50;;
29006;SDS011;16104;48.642;9.008;2024-02-21T14:56:50;2.03;;;1.27;;
29006;SDS011;16104;48.642;9.008;2024-02-21T15:01:45;2.63;;;1.40;;
29006;SDS011;16104;48.642;9.008;2024-02-21T15:06:41;3.55;;;1.30;;
29006;SDS011;16104;48.642;9.008;2024-02-21T15:11:40;3.15;;;1.55;;
29006;SDS011;16104;48.642;9.008;2024-02-21T15:16:35;3.22;;;1.60;;
29006;SDS011;16104;48.642;9.008;2024-02-21T15:21:31;6.22;;;4.35;;
29006;SDS011;16104;48.642;9.008;2024-02-21T15:26:26;6.93;;;4.05;;
29006;SDS011;16104;48.642;9.008;2024-02-21T15:31:24;3.47;;;1.73;;
29006;SDS011;16104;48.642;9.008;2024-02-21T15:36:20;6.10;;;1.83;;
29006;SDS011;16104;48.642;9.008;2024-02-21T15:41:15;2.20;;;1.48;;
29006;SDS011;16104;48.642;9.008;2024-02-21T15:46:11;4.13;;;1.80;;
29006;SDS011;16104;48.642;9.008;2024-02-21T15:51:07;3.65;;;1.52;;
29006;SDS011;16104;48.642;9.008;2024-02-21T15:56:03;3.35;;;1.40;;
29006;SDS011;16104;48.642;9.008;2024-02-21T16:00:59;2.53;;;1.60;;
29006;SDS011;16104;48.642;9.008;2024-02-21T16:05:54;5.07;;;1.35;;
29006;SDS011;16104;48.642;9.008;2024-02-21T16:10:50;2.28;;;1.83;;
29006;SDS011;16104;48.642;9.008;2024-02-21T16:15:45;3.97;;;1.60;;
29006;SDS011;16104;48.642;9.008;2024-02-21T16:20:41;2.95;;;1.80;;
29006;SDS011;16104;48.642;9.008;2024-02-21T16:25:37;12.25;;;6.43;;
29006;SDS011;16104;48.642;9.008;2024-02-21T16:30:32;5.50;;;2.55;;
29006;SDS011;16104;48.642;9.008;2024-02-21T16:35:28;5.80;;;2.20;;
29006;SDS011;16104;48.642;9.008;2024-02-21T16:40:23;4.32;;;2.03;;
29006;SDS011;16104;48.642;9.008;2024-02-21T16:45:19;5.68;;;2.78;;
29006;SDS011;16104;48.642;9.008;2024-02-21T16:50:16;3.95;;;2.13;;
29006;SDS011;16104;48.642;9.008;2024-02-21T16:55:11;5.88;;;3.00;;
29006;SDS011;16104;48.642;9.008;2024-02-21T17:00:07;7.00;;;3.55;;
29006;SDS011;16104;48.642;9.008;2024-02-21T17:05:06;4.10;;;1.98;;
29006;SDS011;16104;48.642;9.008;2024-02-21T17:10:03;4.00;;;1.63;;
29006;SDS011;16104;48.642;9.008;2024-02-21T17:15:04;2.17;;;1.60;;
29006;SDS011;16104;48.642;9.008;2024-02-21T17:20:01;5.70;;;1.88;;
29006;SDS011;16104;48.642;9.008;2024-02-21T17:24:56;4.20;;;2.13;;
29006;SDS011;16104;48.642;9.008;2024-02-21T17:29:52;3.42;;;1.90;;
29006;SDS011;16104;48.642;9.008;2024-02-21T17:34:47;4.18;;;2.13;;
29006;SDS011;16104;48.642;9.008;2024-02-21T17:39:43;16.58;;;10.70;;
29006;SDS011;16104;48.642;9.008;2024-02-21T17:44:39;6.88;;;4.50;;
29006;SDS011;16104;48.642;9.008;2024-02-21T17:49:37;4.95;;;2.88;;
29006;SDS011;16104;48.642;9.008;2024-02-21T17:54:33;4.90;;;2.17;;
29006;SDS011;16104;48.642;9.008;2024-02-21T17:59:28;3.03;;;2.20;;
29006;SDS011;16104;48.642;9.008;2024-02-21T18:04:24;2.80;;;2.22;;
29006;SDS011;16104;48.642;9.008;2024-02-21T18:09:19;3.08;;;2.05;;
29006;SDS011;16104;48.642;9.008;2024-02-21T18:14:15;4.65;;;2.55;;
29006;SDS011;16104;48.642;9.008;2024-02-21T18:19:11;4.18;;;2.45;;
29006;SDS011;16104;48.642;9.008;2024-02-21T18:24:06;4.35;;;2.55;;
29006;SDS011;16104;48.642;9.008;2024-02-21T18:29:02;3.58;;;2.13;;
29006;SDS011;16104;48.642;9.008;2024-02-21T18:33:57;4.15;;;2.42;;
29006;SDS011;16104;48.642;9.008;2024-02-21T18:38:54;5.55;;;2.70;;
29006;SDS011;16104;48.642;9.008;2024-02-21T18:43:50;4.95;;;2.20;;
29006;SDS011;16104;48.642;9.008;2024-02-21T18:48:46;5.05;;;2.00;;
29006;SDS011;16104;48.642;9.008;2024-02-21T18:53:42;2.75;;;2.10;;
29006;SDS011;16104;48.642;9.008;2024-02-21T18:58:37;4.95;;;2.35;;
29006;SDS011;16104;48.642;9.008;2024-02-21T19:03:33;3.95;;;2.50;;
29006;SDS011;16104;48.642;9.008;2024-02-21T19:08:28;4.40;;;2.55;;
29006;SDS011;16104;48.642;9.008;2024-02-21T19:13:24;4.47;;;2.80;;
29006;SDS011;16104;48.642;9.008;2024-02-21T19:18:19;5.60;;;3.05;;
29006;SDS011;16104;48.642;9.008;2024-02-21T19:23:15;3.58;;;2.70;;
29006;SDS011;16104;48.642;9.008;2024-02-21T19:28:10;3.42;;;2.10;;
29006;SDS011;16104;48.642;9.008;2024-02-21T19:33:06;5.85;;;2.35;;
29006;SDS011;16104;48.642;9.008;2024-02-21T19:38:07;2.90;;;2.20;;
29006;SDS011;16104;48.642;9.008;2024-02-21T19:43:04;3.20;;;2.20;;
29006;SDS011;16104;48.642;9.008;2024-02-21T19:47:59;4.43;;;2.75;;
29006;SDS011;16104;48.642;9.008;2024-02-21T19:52:55;2.78;;;2.03;;
29006;SDS011;16104;48.642;9.008;2024-02-21T19:57:51;5.25;;;2.10;;
29006;SDS011;16104;48.642;9.008;2024-02-21T20:02:47;6.38;;;2.10;;
29006;SDS011;16104;48.642;9.008;2024-02-21T20:07:43;6.13;;;2.50;;
29006;SDS011;16104;48.642;9.008;2024-02-21T20:12:39;2.92;;;2.28;;
29006;SDS011;16104;48.642;9.008;2024-02-21T20:17:35;5.50;;;2.60;;
29006;SDS011;16104;48.642;9.008;2024-02-21T20:22:30;3.22;;;2.00;;
29006;SDS011;16104;48.642;9.008;2024-02-21T20:27:26;3.13;;;2.33;;
29006;SDS011;16104;48.642;9.008;2024-02-21T20:32:22;3.25;;;2.05;;
29006;SDS011;16104;48.642;9.008;2024-02-21T20:37:17;4.07;;;2.28;;
29006;SDS011;16104;48.642;9.008;2024-02-21T20:42:13;4.15;;;2.30;;
29006;SDS011;16104;48.642;9.008;2024-02-21T20:47:12;3.75;;;2.50;;
29006;SDS011;16104;48.642;9.008;2024-02-21T20:52:08;5.20;;;2.80;;
29006;SDS011;16104;48.642;9.008;2024-02-21T20:57:03;6.40;;;2.28;;
29006;SDS011;16104;48.642;9.008;2024-02-21T21:01:59;2.28;;;2.08;;
29006;SDS011;16104;48.642;9.008;2024-02-21T21:06:54;4.65;;;1.50;;
29006;SDS011;16104;48.642;9.008;2024-02-21T21:11:50;0.90;;;0.80;;
29006;SDS011;16104;48.642;9.008;2024-02-21T21:16:45;1.75;;;0.90;;
29006;SDS011;16104;48.642;9.008;2024-02-21T21:21:41;4.60;;;2.38;;
29006;SDS011;16104;48.642;9.008;2024-02-21T21:26:36;2.00;;;1.17;;
29006;SDS011;16104;48.642;9.008;2024-02-21T21:31:32;2.30;;;0.90;;
29006;SDS011;16104;48.642;9.008;2024-02-21T21:36:27;1.77;;;0.70;;
29006;SDS011;16104;48.642;9.008;2024-02-21T21:41:23;1.10;;;0.68;;
29006;SDS011;16104;48.642;9.008;2024-02-21T21:46:19;1.42;;;0.73;;
29006;SDS011;16104;48.642;9.008;2024-02-21T21:51:14;0.80;;;0.50;;
29006;SDS011;16104;48.642;9.008;2024-02-21T21:56:10;1.38;;;0.63;;
29006;SDS011;16104;48.642;9.008;2024-02-21T22:01:09;1.25;;;0.65;;
29006;SDS011;16104;48.642;9.008;2024-02-21T22:06:07;3.05;;;0.60;;
29006;SDS011;16104;48.642;9.008;2024-02-21T22:11:05;1.52;;;0.50;;
29006;SDS011;16104;48.642;9.008;2024-02-21T22:16:03;1.38;;;0.70;;
29006;SDS011;16104;48.642;9.008;2024-02-21T22:21:00;0.60;;;0.55;;
29006;SDS011;16104;48.642;9.008;2024-02-21T22:25:56;0.60;;;0.47;;
29006;SDS011;16104;48.642;9.008;2024-02-21T22:30:51;6.05;;;0.68;;
29006;SDS011;16104;48.642;9.008;2024-02-21T22:35:47;3.92;;;0.70;;
29006;SDS011;16104;48.642;9.008;2024-02-21T22:40:42;2.28;;;1.40;;
29006;SDS011;16104;48.642;9.008;2024-02-21T22:45:38;3.45;;;1.90;;
29006;SDS011;16104;48.642;9.008;2024-02-21T22:50:34;1.95;;;1.30;;
29006;SDS011;16104;48.642;9.008;2024-02-21T22:55:29;1.73;;;1.27;;
29006;SDS011;16104;48.642;9.008;2024-02-21T23:00:25;2.15;;;1.42;;
29006;SDS011;16104;48.642;9.008;2024-02-21T23:05:21;2.15;;;1.70;;
29006;SDS011;16104;48.642;9.008;2024-02-21T23:10:18;2.03;;;1.52;;
29006;SDS011;16104;48.642;9.008;2024-02-21T23:15:18;1.70;;;1.38;;
29006;SDS011;16104;48.642;9.008;2024-02-21T23:20:14;1.40;;;1.30;;
29006;SDS011;16104;48.642;9.008;2024-02-21T23:25:10;3.60;;;1.52;;
29006;SDS011;16104;48.642;9.008;2024-02-21T23:30:08;3.83;;;1.70;;
29006;SDS011;16104;48.642;9.008;2024-02-21T23:35:06;3.42;;;1.85;;
29006;SDS011;16104;48.642;9.008;2024-02-21T23:40:02;2.75;;;1.38;;
29006;SDS011;16104;48.642;9.008;2024-02-21T23:44:58;2.30;;;1.60;;
29006;SDS011;16104;48.642;9.008;2024-02-21T23:49:53;2.58;;;1.65;;
29006;SDS011;16104;48.642;9.008;2024-02-21T23:54:49;2.58;;;1.63;;
29006;SDS011;16104;48.642;9.008;2024-02-21T23:59:44;4.38;;;2.10;;
